CheckWX is a tool to help pilots better visualize weather data.  It is not intended as a substitute for an official pre-flight weather briefing.

17:46:58 UTC

KP28 METAR
Medicine Lodge Airport
Medicine Lodge, Kansas, USA
Current

51 mins ago

KP28 241656Z AUTO 21003KT 21/17 A2995 RMK AO1 SLP131 T02110172
Observed
May-24 @ 16:56 UTC
Wind
  • 210° at 3 KTS
Visibility
Temperature
21°C / 70°F
Dewpoint
17°C / 63°F
Humidity
78%
Altimeter
29.95" Hg
Pressure
1014.22 hPa
Previous

2 hours ago

KP28 241556Z AUTO 33003KT 22/17 A2996 RMK AO1 SLP131 T02170172
Observed
May-24 @ 15:56 UTC
Wind
  • 330° at 3 KTS
Visibility
Temperature
22°C / 72°F
Dewpoint
17°C / 63°F
Humidity
73%
Altimeter
29.96" Hg
Pressure
1014.52 hPa
Previous

3 hours ago

KP28 241456Z AUTO 25004KT 20/18 A2996 RMK AO1 SLP132 T02000178 51017
Observed
May-24 @ 14:56 UTC
Wind
  • 250° at 4 KTS
Visibility
Temperature
20°C / 68°F
Dewpoint
18°C / 64°F
Humidity
88%
Altimeter
29.96" Hg
Pressure
1014.52 hPa